sensor_id;sensor_type;location;lat;lon;timestamp;pressure;altitude;pressure_sealevel;temperature
65272;BMP280;51868;48.812;8.198;2023-05-10T00:02:15;99826.09;;;15.37
65272;BMP280;51868;48.812;8.198;2023-05-10T00:04:43;99816.28;;;15.36
65272;BMP280;51868;48.812;8.198;2023-05-10T00:07:11;99819.72;;;15.35
65272;BMP280;51868;48.812;8.198;2023-05-10T00:09:39;99822.53;;;15.35
65272;BMP280;51868;48.812;8.198;2023-05-10T00:12:07;99814.75;;;15.31
65272;BMP280;51868;48.812;8.198;2023-05-10T00:14:36;99827.34;;;15.30
65272;BMP280;51868;48.812;8.198;2023-05-10T00:17:04;99819.56;;;15.27
65272;BMP280;51868;48.812;8.198;2023-05-10T00:19:31;99827.25;;;15.26
65272;BMP280;51868;48.812;8.198;2023-05-10T00:21:59;99818.88;;;15.28
65272;BMP280;51868;48.812;8.198;2023-05-10T00:24:29;99827.97;;;15.29
65272;BMP280;51868;48.812;8.198;2023-05-10T00:26:57;99830.03;;;15.26
65272;BMP280;51868;48.812;8.198;2023-05-10T00:29:25;99827.25;;;15.26
65272;BMP280;51868;48.812;8.198;2023-05-10T00:31:56;99829.34;;;15.26
65272;BMP280;51868;48.812;8.198;2023-05-10T00:34:23;99832.13;;;15.26
65272;BMP280;51868;48.812;8.198;2023-05-10T00:36:52;99841.84;;;15.23
65272;BMP280;51868;48.812;8.198;2023-05-10T00:39:19;99830.59;;;15.18
65272;BMP280;51868;48.812;8.198;2023-05-10T00:41:47;99824.91;;;15.14
65272;BMP280;51868;48.812;8.198;2023-05-10T00:44:15;99829.75;;;15.12
65272;BMP280;51868;48.812;8.198;2023-05-10T00:46:44;99826.91;;;15.10
65272;BMP280;51868;48.812;8.198;2023-05-10T00:49:14;99831.81;;;15.11
65272;BMP280;51868;48.812;8.198;2023-05-10T00:51:42;99827.66;;;15.12
65272;BMP280;51868;48.812;8.198;2023-05-10T00:54:11;99831.13;;;15.11
65272;BMP280;51868;48.812;8.198;2023-05-10T00:56:39;99831.13;;;15.11
65272;BMP280;51868;48.812;8.198;2023-05-10T00:59:08;99825.50;;;15.09
65272;BMP280;51868;48.812;8.198;2023-05-10T01:01:36;99826.91;;;15.10
65272;BMP280;51868;48.812;8.198;2023-05-10T01:04:05;99828.31;;;15.11
65272;BMP280;51868;48.812;8.198;2023-05-10T01:06:34;99821.31;;;15.10
65272;BMP280;51868;48.812;8.198;2023-05-10T01:12:52;99819.19;;;15.08
65272;BMP280;51868;48.812;8.198;2023-05-10T01:15:21;99826.84;;;15.08
65272;BMP280;51868;48.812;8.198;2023-05-10T01:17:49;99819.16;;;15.06
65272;BMP280;51868;48.812;8.198;2023-05-10T01:20:18;99821.97;;;15.08
65272;BMP280;51868;48.812;8.198;2023-05-10T01:23:10;99828.34;;;15.13
65272;BMP280;51868;48.812;8.198;2023-05-10T01:26:14;99822.84;;;15.17
65272;BMP280;51868;48.812;8.198;2023-05-10T01:28:58;99817.25;;;15.17
65272;BMP280;51868;48.812;8.198;2023-05-10T01:32:01;99817.25;;;15.17
65272;BMP280;51868;48.812;8.198;2023-05-10T01:34:35;99820.06;;;15.17
65272;BMP280;51868;48.812;8.198;2023-05-10T01:37:07;99821.53;;;15.20
65272;BMP280;51868;48.812;8.198;2023-05-10T01:39:40;99820.88;;;15.22
65272;BMP280;51868;48.812;8.198;2023-05-10T01:42:14;99822.25;;;15.21
65272;BMP280;51868;48.812;8.198;2023-05-10T01:44:49;99819.47;;;15.21
65272;BMP280;51868;48.812;8.198;2023-05-10T01:47:27;99825.75;;;15.21
65272;BMP280;51868;48.812;8.198;2023-05-10T01:50:02;99822.97;;;15.21
65272;BMP280;51868;48.812;8.198;2023-05-10T01:52:33;99831.34;;;15.21
65272;BMP280;51868;48.812;8.198;2023-05-10T01:55:03;99823.66;;;15.22
65272;BMP280;51868;48.812;8.198;2023-05-10T01:57:33;99816.00;;;15.24
65272;BMP280;51868;48.812;8.198;2023-05-10T02:00:03;99822.38;;;15.27
65272;BMP280;51868;48.812;8.198;2023-05-10T02:02:37;99828.69;;;15.27
65272;BMP280;51868;48.812;8.198;2023-05-10T02:05:06;99825.19;;;15.29
65272;BMP280;51868;48.812;8.198;2023-05-10T02:07:35;99831.50;;;15.29
65272;BMP280;51868;48.812;8.198;2023-05-10T02:10:05;99834.34;;;15.31
65272;BMP280;51868;48.812;8.198;2023-05-10T02:12:35;99840.59;;;15.30
65272;BMP280;51868;48.812;8.198;2023-05-10T02:15:05;99845.41;;;15.25
65272;BMP280;51868;48.812;8.198;2023-05-10T02:17:39;99846.03;;;15.22
65272;BMP280;51868;48.812;8.198;2023-05-10T02:20:08;99842.47;;;15.19
65272;BMP280;51868;48.812;8.198;2023-05-10T02:22:37;99848.00;;;15.17
65272;BMP280;51868;48.812;8.198;2023-05-10T02:25:07;99844.50;;;15.16
65272;BMP280;51868;48.812;8.198;2023-05-10T02:27:36;99852.81;;;15.12
65272;BMP280;51868;48.812;8.198;2023-05-10T02:30:06;99856.19;;;15.07
65272;BMP280;51868;48.812;8.198;2023-05-10T02:32:36;99861.84;;;15.09
65272;BMP280;51868;48.812;8.198;2023-05-10T02:35:05;99851.31;;;15.07
65272;BMP280;51868;48.812;8.198;2023-05-10T02:37:37;99853.34;;;15.05
65272;BMP280;51868;48.812;8.198;2023-05-10T02:40:06;99853.34;;;15.05
65272;BMP280;51868;48.812;8.198;2023-05-10T02:42:37;99852.66;;;15.04
65272;BMP280;51868;48.812;8.198;2023-05-10T02:45:10;99856.75;;;15.01
65272;BMP280;51868;48.812;8.198;2023-05-10T02:47:40;99849.75;;;15.00
65272;BMP280;51868;48.812;8.198;2023-05-10T02:50:08;99857.34;;;14.96
65272;BMP280;51868;48.812;8.198;2023-05-10T02:52:41;99860.06;;;14.93
65272;BMP280;51868;48.812;8.198;2023-05-10T02:55:11;99855.88;;;14.92
65272;BMP280;51868;48.812;8.198;2023-05-10T02:57:43;99850.88;;;14.89
65272;BMP280;51868;48.812;8.198;2023-05-10T03:00:13;99852.25;;;14.86
65272;BMP280;51868;48.812;8.198;2023-05-10T03:02:42;99861.28;;;14.84
65272;BMP280;51868;48.812;8.198;2023-05-10T03:05:10;99859.81;;;14.81
65272;BMP280;51868;48.812;8.198;2023-05-10T03:07:37;99868.19;;;14.81
65272;BMP280;51868;48.812;8.198;2023-05-10T03:10:06;99863.19;;;14.78
65272;BMP280;51868;48.812;8.198;2023-05-10T03:12:46;99859.69;;;14.77
65272;BMP280;51868;48.812;8.198;2023-05-10T03:15:21;99868.03;;;14.75
65272;BMP280;51868;48.812;8.198;2023-05-10T03:17:57;99868.69;;;14.74
65272;BMP280;51868;48.812;8.198;2023-05-10T03:20:31;99867.22;;;14.70
65272;BMP280;51868;48.812;8.198;2023-05-10T03:23:11;99866.50;;;14.70
65272;BMP280;51868;48.812;8.198;2023-05-10T03:25:40;99863.03;;;14.69
65272;BMP280;51868;48.812;8.198;2023-05-10T03:28:11;99867.91;;;14.69
65272;BMP280;51868;48.812;8.198;2023-05-10T03:30:39;99875.59;;;14.70
65272;BMP280;51868;48.812;8.198;2023-05-10T03:33:09;99874.91;;;14.70
65272;BMP280;51868;48.812;8.198;2023-05-10T03:35:37;99867.91;;;14.69
65272;BMP280;51868;48.812;8.198;2023-05-10T03:38:05;99870.72;;;14.71
65272;BMP280;51868;48.812;8.198;2023-05-10T03:40:33;99872.16;;;14.72
65272;BMP280;51868;48.812;8.198;2023-05-10T03:43:00;99879.81;;;14.72
65272;BMP280;51868;48.812;8.198;2023-05-10T03:45:28;99881.16;;;14.68
65272;BMP280;51868;48.812;8.198;2023-05-10T03:47:57;99882.53;;;14.67
65272;BMP280;51868;48.812;8.198;2023-05-10T03:50:27;99879.69;;;14.65
65272;BMP280;51868;48.812;8.198;2023-05-10T03:52:54;99879.69;;;14.65
65272;BMP280;51868;48.812;8.198;2023-05-10T03:55:22;99879.63;;;14.63
65272;BMP280;51868;48.812;8.198;2023-05-10T03:57:50;99881.72;;;14.63
65272;BMP280;51868;48.812;8.198;2023-05-10T04:00:20;99881.09;;;14.66
65272;BMP280;51868;48.812;8.198;2023-05-10T04:02:48;99876.22;;;14.67
65272;BMP280;51868;48.812;8.198;2023-05-10T04:05:16;99881.84;;;14.69
65272;BMP280;51868;48.812;8.198;2023-05-10T04:07:45;99870.72;;;14.71
65272;BMP280;51868;48.812;8.198;2023-05-10T04:10:13;99886.19;;;14.74
65272;BMP280;51868;48.812;8.198;2023-05-10T04:12:43;99884.78;;;14.75
65272;BMP280;51868;48.812;8.198;2023-05-10T04:15:11;99891.84;;;14.78
65272;BMP280;51868;48.812;8.198;2023-05-10T04:17:38;99887.69;;;14.79
65272;BMP280;51868;48.812;8.198;2023-05-10T04:20:08;99883.47;;;14.78
65272;BMP280;51868;48.812;8.198;2023-05-10T04:22:36;99877.16;;;14.78
65272;BMP280;51868;48.812;8.198;2023-05-10T04:25:08;99883.47;;;14.78
65272;BMP280;51868;48.812;8.198;2023-05-10T04:27:35;99896.72;;;14.78
65272;BMP280;51868;48.812;8.198;2023-05-10T04:30:04;99892.56;;;14.79
65272;BMP280;51868;48.812;8.198;2023-05-10T04:32:33;99889.72;;;14.77
65272;BMP280;51868;48.812;8.198;2023-05-10T04:35:00;99892.47;;;14.75
65272;BMP280;51868;48.812;8.198;2023-05-10T04:37:30;99895.28;;;14.75
65272;BMP280;51868;48.812;8.198;2023-05-10T04:39:57;99904.34;;;14.75
65272;BMP280;51868;48.812;8.198;2023-05-10T04:42:27;99905.75;;;14.76
65272;BMP280;51868;48.812;8.198;2023-05-10T04:44:55;99905.75;;;14.74
65272;BMP280;51868;48.812;8.198;2023-05-10T04:47:23;99902.22;;;14.74
65272;BMP280;51868;48.812;8.198;2023-05-10T04:49:51;99901.53;;;14.75
65272;BMP280;51868;48.812;8.198;2023-05-10T04:52:19;99903.00;;;14.78
65272;BMP280;51868;48.812;8.198;2023-05-10T04:54:46;99907.97;;;14.80
65272;BMP280;51868;48.812;8.198;2023-05-10T04:57:14;99905.88;;;14.80
65272;BMP280;51868;48.812;8.198;2023-05-10T04:59:43;99903.81;;;14.83
65272;BMP280;51868;48.812;8.198;2023-05-10T05:02:14;99906.72;;;14.87
65272;BMP280;51868;48.812;8.198;2023-05-10T05:04:42;99907.47;;;14.89
65272;BMP280;51868;48.812;8.198;2023-05-10T05:07:10;99908.91;;;14.90
65272;BMP280;51868;48.812;8.198;2023-05-10T05:09:38;99912.44;;;14.93
65272;BMP280;51868;48.812;8.198;2023-05-10T05:12:05;99911.13;;;14.96
65272;BMP280;51868;48.812;8.198;2023-05-10T05:14:33;99909.78;;;14.99
65272;BMP280;51868;48.812;8.198;2023-05-10T05:17:07;99915.44;;;15.01
65272;BMP280;51868;48.812;8.198;2023-05-10T05:19:35;99914.78;;;15.03
65272;BMP280;51868;48.812;8.198;2023-05-10T05:22:03;99911.97;;;15.03
65272;BMP280;51868;48.812;8.198;2023-05-10T05:24:35;99913.41;;;15.04
65272;BMP280;51868;48.812;8.198;2023-05-10T05:27:04;99912.78;;;15.07
65272;BMP280;51868;48.812;8.198;2023-05-10T05:29:32;99910.78;;;15.12
65272;BMP280;51868;48.812;8.198;2023-05-10T05:32:00;99910.91;;;15.16
65272;BMP280;51868;48.812;8.198;2023-05-10T05:34:29;99916.53;;;15.18
65272;BMP280;51868;48.812;8.198;2023-05-10T05:36:57;99917.88;;;15.17
65272;BMP280;51868;48.812;8.198;2023-05-10T05:39:25;99923.47;;;15.17
65272;BMP280;51868;48.812;8.198;2023-05-10T05:41:53;99931.16;;;15.16
65272;BMP280;51868;48.812;8.198;2023-05-10T05:44:20;99927.66;;;15.16
65272;BMP280;51868;48.812;8.198;2023-05-10T05:46:48;99933.94;;;15.16
65272;BMP280;51868;48.812;8.198;2023-05-10T05:49:16;99940.22;;;15.17
65272;BMP280;51868;48.812;8.198;2023-05-10T05:51:45;99950.06;;;15.18
65272;BMP280;51868;48.812;8.198;2023-05-10T05:54:13;99952.13;;;15.17
65272;BMP280;51868;48.812;8.198;2023-05-10T05:56:41;99957.72;;;15.17
65272;BMP280;51868;48.812;8.198;2023-05-10T05:59:10;99954.22;;;15.17
65272;BMP280;51868;48.812;8.198;2023-05-10T06:01:38;99952.13;;;15.17
65272;BMP280;51868;48.812;8.198;2023-05-10T06:04:06;99958.50;;;15.20
65272;BMP280;51868;48.812;8.198;2023-05-10T06:09:03;99966.31;;;15.26
65272;BMP280;51868;48.812;8.198;2023-05-10T06:11:31;99968.47;;;15.27
65272;BMP280;51868;48.812;8.198;2023-05-10T06:13:59;99968.50;;;15.29
65272;BMP280;51868;48.812;8.198;2023-05-10T06:16:28;99966.47;;;15.32
65272;BMP280;51868;48.812;8.198;2023-05-10T06:18:56;99972.13;;;15.36
65272;BMP280;51868;48.812;8.198;2023-05-10T06:21:24;99970.81;;;15.39
65272;BMP280;51868;48.812;8.198;2023-05-10T06:23:52;99971.50;;;15.39
65272;BMP280;51868;48.812;8.198;2023-05-10T06:26:21;99977.09;;;15.39
65272;BMP280;51868;48.812;8.198;2023-05-10T06:28:49;99976.34;;;15.37
65272;BMP280;51868;48.812;8.198;2023-05-10T06:31:17;99977.00;;;15.35
65272;BMP280;51868;48.812;8.198;2023-05-10T06:33:45;99978.38;;;15.34
65272;BMP280;51868;48.812;8.198;2023-05-10T06:36:13;99983.25;;;15.34
65272;BMP280;51868;48.812;8.198;2023-05-10T06:38:41;99976.28;;;15.35
65272;BMP280;51868;48.812;8.198;2023-05-10T06:41:09;99984.09;;;15.38
65272;BMP280;51868;48.812;8.198;2023-05-10T06:43:38;99986.25;;;15.42
65272;BMP280;51868;48.812;8.198;2023-05-10T06:46:07;99982.25;;;15.51
65272;BMP280;51868;48.812;8.198;2023-05-10T06:48:35;99987.31;;;15.59
65272;BMP280;51868;48.812;8.198;2023-05-10T06:51:03;99986.03;;;15.64
65272;BMP280;51868;48.812;8.198;2023-05-10T06:53:31;99977.75;;;15.70
65272;BMP280;51868;48.812;8.198;2023-05-10T06:55:59;99984.28;;;15.81
65272;BMP280;51868;48.812;8.198;2023-05-10T06:58:26;99982.25;;;15.83
65272;BMP280;51868;48.812;8.198;2023-05-10T07:01:01;99985.69;;;15.82
65272;BMP280;51868;48.812;8.198;2023-05-10T07:03:29;99993.44;;;15.83
65272;BMP280;51868;48.812;8.198;2023-05-10T07:06:00;99995.47;;;15.81
65272;BMP280;51868;48.812;8.198;2023-05-10T07:08:29;99996.09;;;15.77
65272;BMP280;51868;48.812;8.198;2023-05-10T07:11:01;100001.59;;;15.73
65272;BMP280;51868;48.812;8.198;2023-05-10T07:13:30;100000.91;;;15.73
65272;BMP280;51868;48.812;8.198;2023-05-10T07:16:00;100001.63;;;15.75
65272;BMP280;51868;48.812;8.198;2023-05-10T07:18:28;99995.56;;;15.85
65272;BMP280;51868;48.812;8.198;2023-05-10T07:20:57;99997.28;;;16.00
65272;BMP280;51868;48.812;8.198;2023-05-10T07:23:25;100003.72;;;16.09
65272;BMP280;51868;48.812;8.198;2023-05-10T07:25:52;99998.97;;;16.15
65272;BMP280;51868;48.812;8.198;2023-05-10T07:28:22;100010.34;;;16.24
65272;BMP280;51868;48.812;8.198;2023-05-10T07:30:51;100005.53;;;16.28
65272;BMP280;51868;48.812;8.198;2023-05-10T07:33:20;100014.53;;;16.25
65272;BMP280;51868;48.812;8.198;2023-05-10T07:35:49;100020.06;;;16.21
65272;BMP280;51868;48.812;8.198;2023-05-10T07:38:17;100019.31;;;16.18
65272;BMP280;51868;48.812;8.198;2023-05-10T07:40:45;100023.50;;;16.17
65272;BMP280;51868;48.812;8.198;2023-05-10T07:43:12;100022.78;;;16.16
65272;BMP280;51868;48.812;8.198;2023-05-10T07:45:40;100031.22;;;16.18
65272;BMP280;51868;48.812;8.198;2023-05-10T07:48:08;100024.19;;;16.17
65272;BMP280;51868;48.812;8.198;2023-05-10T07:50:37;100024.91;;;16.18
65272;BMP280;51868;48.812;8.198;2023-05-10T07:53:05;100026.97;;;16.15
65272;BMP280;51868;48.812;8.198;2023-05-10T07:55:34;100022.69;;;16.12
65272;BMP280;51868;48.812;8.198;2023-05-10T07:58:02;100029.06;;;16.15
65272;BMP280;51868;48.812;8.198;2023-05-10T08:00:30;100031.88;;;16.15
65272;BMP280;51868;48.812;8.198;2023-05-10T08:02:57;100038.81;;;16.14
65272;BMP280;51868;48.812;8.198;2023-05-10T08:05:25;100031.78;;;16.11
65272;BMP280;51868;48.812;8.198;2023-05-10T08:07:56;100037.31;;;16.09
65272;BMP280;51868;48.812;8.198;2023-05-10T08:10:27;100052.75;;;16.10
65272;BMP280;51868;48.812;8.198;2023-05-10T08:12:55;100047.88;;;16.10
65272;BMP280;51868;48.812;8.198;2023-05-10T08:15:25;100058.34;;;16.10
65272;BMP280;51868;48.812;8.198;2023-05-10T08:17:53;100048.38;;;16.03
65272;BMP280;51868;48.812;8.198;2023-05-10T08:20:21;100047.09;;;16.06
65272;BMP280;51868;48.812;8.198;2023-05-10T08:22:49;100047.81;;;16.08
65272;BMP280;51868;48.812;8.198;2023-05-10T08:25:19;100042.94;;;16.09
65272;BMP280;51868;48.812;8.198;2023-05-10T08:27:47;100042.88;;;16.07
65272;BMP280;51868;48.812;8.198;2023-05-10T08:30:15;100046.97;;;16.02
65272;BMP280;51868;48.812;8.198;2023-05-10T08:32:43;100050.38;;;15.98
65272;BMP280;51868;48.812;8.198;2023-05-10T08:35:11;100053.94;;;15.99
65272;BMP280;51868;48.812;8.198;2023-05-10T08:37:38;100060.97;;;16.02
65272;BMP280;51868;48.812;8.198;2023-05-10T08:40:08;100062.44;;;16.05
65272;BMP280;51868;48.812;8.198;2023-05-10T08:42:43;100059.78;;;16.11
65272;BMP280;51868;48.812;8.198;2023-05-10T08:45:15;100058.50;;;16.18
65272;BMP280;51868;48.812;8.198;2023-05-10T08:47:44;100059.84;;;16.15
65272;BMP280;51868;48.812;8.198;2023-05-10T08:50:13;100076.50;;;16.09
65272;BMP280;51868;48.812;8.198;2023-05-10T08:52:42;100077.75;;;16.02
65272;BMP280;51868;48.812;8.198;2023-05-10T08:55:11;100084.56;;;15.92
65272;BMP280;51868;48.812;8.198;2023-05-10T08:57:40;100080.06;;;15.79
65272;BMP280;51868;48.812;8.198;2023-05-10T09:00:10;100086.16;;;15.70
65272;BMP280;51868;48.812;8.198;2023-05-10T09:02:37;100087.50;;;15.66
65272;BMP280;51868;48.812;8.198;2023-05-10T09:05:06;100085.34;;;15.65
65272;BMP280;51868;48.812;8.198;2023-05-10T09:07:35;100086.16;;;15.70
65272;BMP280;51868;48.812;8.198;2023-05-10T09:10:05;100081.63;;;15.86
65272;BMP280;51868;48.812;8.198;2023-05-10T09:12:33;100080.69;;;16.08
65272;BMP280;51868;48.812;8.198;2023-05-10T09:15:04;100086.59;;;16.22
65272;BMP280;51868;48.812;8.198;2023-05-10T09:17:33;100093.69;;;16.27
65272;BMP280;51868;48.812;8.198;2023-05-10T09:20:03;100096.59;;;16.31
65272;BMP280;51868;48.812;8.198;2023-05-10T09:22:31;100106.94;;;16.25
65272;BMP280;51868;48.812;8.198;2023-05-10T09:25:06;100122.03;;;16.11
65272;BMP280;51868;48.812;8.198;2023-05-10T09:27:35;100123.16;;;15.98
65272;BMP280;51868;48.812;8.198;2023-05-10T09:30:06;100123.91;;;15.99
65272;BMP280;51868;48.812;8.198;2023-05-10T09:32:39;100122.53;;;16.02
65272;BMP280;51868;48.812;8.198;2023-05-10T09:35:08;100124.81;;;16.09
65272;BMP280;51868;48.812;8.198;2023-05-10T09:37:38;100114.47;;;16.16
65272;BMP280;51868;48.812;8.198;2023-05-10T09:40:11;100130.75;;;16.26
65272;BMP280;51868;48.812;8.198;2023-05-10T09:42:41;100134.34;;;16.30
65272;BMP280;51868;48.812;8.198;2023-05-10T09:45:11;100134.41;;;16.32
65272;BMP280;51868;48.812;8.198;2023-05-10T09:47:38;100137.94;;;16.35
65272;BMP280;51868;48.812;8.198;2023-05-10T09:50:07;100137.31;;;16.38
65272;BMP280;51868;48.812;8.198;2023-05-10T09:52:46;100132.53;;;16.43
65272;BMP280;51868;48.812;8.198;2023-05-10T09:55:15;100138.31;;;16.53
65272;BMP280;51868;48.812;8.198;2023-05-10T09:57:44;100132.81;;;16.57
65272;BMP280;51868;48.812;8.198;2023-05-10T10:00:18;100130.09;;;16.61
65272;BMP280;51868;48.812;8.198;2023-05-10T10:02:48;100137.19;;;16.66
65272;BMP280;51868;48.812;8.198;2023-05-10T10:05:28;100140.03;;;16.69
65272;BMP280;51868;48.812;8.198;2023-05-10T10:07:56;100135.13;;;16.69
65272;BMP280;51868;48.812;8.198;2023-05-10T10:10:24;100141.41;;;16.67
65272;BMP280;51868;48.812;8.198;2023-05-10T10:12:52;100126.66;;;16.65
65272;BMP280;51868;48.812;8.198;2023-05-10T10:15:22;100137.16;;;16.64
65272;BMP280;51868;48.812;8.198;2023-05-10T10:17:52;100137.03;;;16.58
65272;BMP280;51868;48.812;8.198;2023-05-10T10:20:22;100143.31;;;16.57
65272;BMP280;51868;48.812;8.198;2023-05-10T10:22:50;100146.66;;;16.49
65272;BMP280;51868;48.812;8.198;2023-05-10T10:25:19;100151.38;;;16.40
65272;BMP280;51868;48.812;8.198;2023-05-10T10:28:14;100149.78;;;16.31
65272;BMP280;51868;48.812;8.198;2023-05-10T10:30:47;100149.69;;;16.27
65272;BMP280;51868;48.812;8.198;2023-05-10T10:33:33;100149.53;;;16.19
65272;BMP280;51868;48.812;8.198;2023-05-10T10:36:04;100153.69;;;16.18
65272;BMP280;51868;48.812;8.198;2023-05-10T10:38:36;100146.75;;;16.21
65272;BMP280;51868;48.812;8.198;2023-05-10T10:41:09;100136.38;;;16.28
65272;BMP280;51868;48.812;8.198;2023-05-10T10:43:38;100140.03;;;16.34
65272;BMP280;51868;48.812;8.198;2023-05-10T10:46:15;100135.28;;;16.41
65272;BMP280;51868;48.812;8.198;2023-05-10T10:48:47;100131.91;;;16.47
65272;BMP280;51868;48.812;8.198;2023-05-10T10:51:15;100140.41;;;16.53
65272;BMP280;51868;48.812;8.198;2023-05-10T10:53:43;100127.91;;;16.58
65272;BMP280;51868;48.812;8.198;2023-05-10T10:56:12;100137.09;;;16.62
65272;BMP280;51868;48.812;8.198;2023-05-10T10:58:48;100136.47;;;16.66
65272;BMP280;51868;48.812;8.198;2023-05-10T11:01:19;100140.75;;;16.69
65272;BMP280;51868;48.812;8.198;2023-05-10T11:04:18;100138.66;;;16.72
65272;BMP280;51868;48.812;8.198;2023-05-10T11:06:47;100140.91;;;16.77
65272;BMP280;51868;48.812;8.198;2023-05-10T11:09:14;100143.09;;;16.83
65272;BMP280;51868;48.812;8.198;2023-05-10T11:11:50;100141.06;;;16.87
65272;BMP280;51868;48.812;8.198;2023-05-10T11:14:20;100143.94;;;16.91
65272;BMP280;51868;48.812;8.198;2023-05-10T11:16:50;100138.56;;;17.04
65272;BMP280;51868;48.812;8.198;2023-05-10T11:19:19;100142.16;;;17.08
65272;BMP280;51868;48.812;8.198;2023-05-10T11:21:48;100135.88;;;17.10
65272;BMP280;51868;48.812;8.198;2023-05-10T11:24:18;100135.19;;;17.09
65272;BMP280;51868;48.812;8.198;2023-05-10T11:26:49;100135.97;;;17.14
65272;BMP280;51868;48.812;8.198;2023-05-10T11:29:19;100138.06;;;17.13
65272;BMP280;51868;48.812;8.198;2023-05-10T11:31:48;100145.19;;;17.21
65272;BMP280;51868;48.812;8.198;2023-05-10T11:34:24;100148.09;;;17.27
65272;BMP280;51868;48.812;8.198;2023-05-10T11:36:54;100150.38;;;17.36
65272;BMP280;51868;48.812;8.198;2023-05-10T11:39:25;100146.25;;;17.41
65272;BMP280;51868;48.812;8.198;2023-05-10T11:41:54;100151.91;;;17.48
65272;BMP280;51868;48.812;8.198;2023-05-10T11:44:22;100149.84;;;17.48
65272;BMP280;51868;48.812;8.198;2023-05-10T11:46:50;100157.53;;;17.46
65272;BMP280;51868;48.812;8.198;2023-05-10T11:49:18;100146.97;;;17.44
65272;BMP280;51868;48.812;8.198;2023-05-10T11:51:47;100162.97;;;17.37
65272;BMP280;51868;48.812;8.198;2023-05-10T11:54:15;100160.19;;;17.37
65272;BMP280;51868;48.812;8.198;2023-05-10T11:56:42;100156.03;;;17.40
65272;BMP280;51868;48.812;8.198;2023-05-10T11:59:14;100154.78;;;17.50
65272;BMP280;51868;48.812;8.198;2023-05-10T12:01:42;100143.81;;;17.68
65272;BMP280;51868;48.812;8.198;2023-05-10T12:04:10;100137.94;;;17.96
65272;BMP280;51868;48.812;8.198;2023-05-10T12:06:40;100130.59;;;18.27
65272;BMP280;51868;48.812;8.198;2023-05-10T12:09:12;100125.09;;;18.35
65272;BMP280;51868;48.812;8.198;2023-05-10T12:11:40;100127.91;;;18.35
65272;BMP280;51868;48.812;8.198;2023-05-10T12:14:10;100121.53;;;18.33
65272;BMP280;51868;48.812;8.198;2023-05-10T12:16:38;100132.06;;;18.32
65272;BMP280;51868;48.812;8.198;2023-05-10T12:19:06;100125.09;;;18.35
65272;BMP280;51868;48.812;8.198;2023-05-10T12:21:34;100125.09;;;18.35
65272;BMP280;51868;48.812;8.198;2023-05-10T12:24:03;100126.44;;;18.32
65272;BMP280;51868;48.812;8.198;2023-05-10T12:26:34;100132.69;;;18.25
65272;BMP280;51868;48.812;8.198;2023-05-10T12:29:13;100134.75;;;18.20
65272;BMP280;51868;48.812;8.198;2023-05-10T12:31:52;100130.50;;;18.21
65272;BMP280;51868;48.812;8.198;2023-05-10T12:34:29;100131.94;;;18.20
65272;BMP280;51868;48.812;8.198;2023-05-10T12:36:58;100128.44;;;18.24
65272;BMP280;51868;48.812;8.198;2023-05-10T12:39:26;100129.19;;;18.26
65272;BMP280;51868;48.812;8.198;2023-05-10T12:41:55;100137.00;;;18.32
65272;BMP280;51868;48.812;8.198;2023-05-10T12:44:23;100123.78;;;18.42
65272;BMP280;51868;48.812;8.198;2023-05-10T12:46:51;100121.03;;;18.49
65272;BMP280;51868;48.812;8.198;2023-05-10T12:49:20;100126.66;;;18.49
65272;BMP280;51868;48.812;8.198;2023-05-10T12:51:48;100134.97;;;18.40
65272;BMP280;51868;48.812;8.198;2023-05-10T12:54:23;100125.09;;;18.35
65272;BMP280;51868;48.812;8.198;2023-05-10T12:56:54;100130.66;;;18.31
65272;BMP280;51868;48.812;8.198;2023-05-10T12:59:22;100136.91;;;18.26
65272;BMP280;51868;48.812;8.198;2023-05-10T13:01:50;100132.00;;;18.24
65272;BMP280;51868;48.812;8.198;2023-05-10T13:04:17;100128.44;;;18.22
65272;BMP280;51868;48.812;8.198;2023-05-10T13:06:45;100135.50;;;18.25
65272;BMP280;51868;48.812;8.198;2023-05-10T13:09:13;100130.66;;;18.31
65272;BMP280;51868;48.812;8.198;2023-05-10T13:11:41;100129.41;;;18.42
65272;BMP280;51868;48.812;8.198;2023-05-10T13:14:10;100126.66;;;18.51
65272;BMP280;51868;48.812;8.198;2023-05-10T13:16:38;100124.66;;;18.59
65272;BMP280;51868;48.812;8.198;2023-05-10T13:19:06;100117.06;;;18.70
65272;BMP280;51868;48.812;8.198;2023-05-10T13:21:35;100117.91;;;18.85
65272;BMP280;51868;48.812;8.198;2023-05-10T13:24:03;100110.28;;;18.96
65272;BMP280;51868;48.812;8.198;2023-05-10T13:26:32;100113.09;;;19.02
65272;BMP280;51868;48.812;8.198;2023-05-10T13:28:59;100118.09;;;19.07
65272;BMP280;51868;48.812;8.198;2023-05-10T13:31:29;100117.44;;;19.13
65272;BMP280;51868;48.812;8.198;2023-05-10T13:33:57;100122.34;;;19.12
65272;BMP280;51868;48.812;8.198;2023-05-10T13:36:24;100126.50;;;19.05
65272;BMP280;51868;48.812;8.198;2023-05-10T13:38:52;100120.09;;;18.97
65272;BMP280;51868;48.812;8.198;2023-05-10T13:41:20;100115.09;;;18.87
65272;BMP280;51868;48.812;8.198;2023-05-10T13:43:48;100115.03;;;18.81
65272;BMP280;51868;48.812;8.198;2023-05-10T13:46:16;100109.41;;;18.77
65272;BMP280;51868;48.812;8.198;2023-05-10T13:48:45;100107.31;;;18.79
65272;BMP280;51868;48.812;8.198;2023-05-10T13:51:13;100108.75;;;18.84
65272;BMP280;51868;48.812;8.198;2023-05-10T13:53:40;100110.25;;;18.93
65272;BMP280;51868;48.812;8.198;2023-05-10T13:56:08;100105.38;;;18.98
65272;BMP280;51868;48.812;8.198;2023-05-10T13:58:36;100097.66;;;19.03
65272;BMP280;51868;48.812;8.198;2023-05-10T14:01:04;100100.47;;;19.03
65272;BMP280;51868;48.812;8.198;2023-05-10T14:03:33;100101.84;;;19.00
65272;BMP280;51868;48.812;8.198;2023-05-10T14:06:03;100099.72;;;18.96
65272;BMP280;51868;48.812;8.198;2023-05-10T14:08:31;100093.38;;;18.93
65272;BMP280;51868;48.812;8.198;2023-05-10T14:10:59;100097.56;;;18.92
65272;BMP280;51868;48.812;8.198;2023-05-10T14:13:27;100091.97;;;18.97
65272;BMP280;51868;48.812;8.198;2023-05-10T14:15:55;100084.97;;;19.00
65272;BMP280;51868;48.812;8.198;2023-05-10T14:18:23;100091.34;;;19.04
65272;BMP280;51868;48.812;8.198;2023-05-10T14:20:50;100085.72;;;19.06
65272;BMP280;51868;48.812;8.198;2023-05-10T14:23:20;100092.78;;;19.07